createdAt,value
2018-09-11T00:01:00.887Z,87.00
2018-09-11T00:06:00.288Z,85.60
2018-09-11T00:08:28.625Z,84.90
2018-09-11T00:10:59.877Z,85.40
2018-09-11T00:13:29.684Z,85.50
2018-09-11T00:15:57.525Z,86.70
2018-09-11T00:18:27.981Z,85.60
2018-09-11T00:20:57.935Z,85.80
2018-09-11T00:23:25.405Z,84.50
2018-09-11T00:25:53.845Z,84.00
2018-09-11T00:28:24.315Z,86.60
2018-09-11T00:30:51.912Z,86.30
2018-09-11T00:35:56.114Z,85.50
2018-09-11T00:38:22.909Z,85.60
2018-09-11T00:40:49.642Z,85.70
2018-09-11T00:43:16.471Z,86.10
2018-09-11T00:45:43.037Z,84.70
2018-09-11T00:48:10.569Z,85.10
2018-09-11T00:50:37.347Z,84.00
2018-09-11T00:53:04.151Z,84.40
2018-09-11T00:55:31.834Z,84.00
2018-09-11T00:57:58.581Z,84.60
2018-09-11T01:00:26.640Z,85.30
2018-09-11T01:02:53.352Z,85.40
2018-09-11T01:05:20.170Z,83.60
2018-09-11T01:07:46.760Z,85.10
2018-09-11T01:10:14.656Z,84.20
2018-09-11T01:12:41.638Z,84.00
2018-09-11T01:15:08.397Z,83.10
2018-09-11T01:17:36.371Z,83.60
2018-09-11T01:20:05.025Z,85.20
2018-09-11T01:22:33.070Z,85.10
2018-09-11T01:24:59.874Z,85.50
2018-09-11T01:27:26.614Z,86.10
2018-09-11T01:29:56.311Z,87.40
2018-09-11T01:32:23.113Z,86.00
2018-09-11T01:34:53.093Z,86.70
2018-09-11T01:37:23.759Z,86.50
2018-09-11T01:39:52.859Z,86.50
2018-09-11T01:42:20.287Z,89.60
2018-09-11T01:44:48.030Z,88.20
2018-09-11T01:47:16.457Z,87.20
2018-09-11T01:49:43.252Z,86.80
2018-09-11T01:52:12.589Z,86.70
2018-09-11T01:54:39.478Z,86.10
2018-09-11T01:57:06.086Z,87.10
2018-09-11T01:59:34.224Z,86.30
2018-09-11T02:02:02.092Z,85.80
2018-09-11T02:04:28.904Z,86.10
2018-09-11T02:06:55.572Z,85.10
2018-09-11T02:09:23.411Z,84.80
2018-09-11T02:11:51.174Z,85.30
2018-09-11T02:14:18.106Z,84.20
2018-09-11T02:16:46.663Z,84.40
2018-09-11T02:19:13.367Z,83.40
2018-09-11T02:21:40.324Z,84.40
2018-09-11T02:24:08.033Z,83.60
2018-09-11T02:26:34.768Z,83.00
2018-09-11T02:29:01.465Z,84.50
2018-09-11T02:31:27.947Z,84.10
2018-09-11T02:33:54.457Z,84.30
2018-09-11T02:36:21.207Z,85.50
2018-09-11T02:38:48.206Z,85.00
2018-09-11T02:41:14.820Z,84.20
2018-09-11T02:43:43.251Z,84.60
2018-09-11T02:46:12.757Z,84.30
2018-09-11T02:48:40.345Z,83.90
2018-09-11T02:51:14.497Z,83.70
2018-09-11T02:53:42.899Z,84.30
2018-09-11T02:56:09.616Z,84.00
2018-09-11T02:58:36.130Z,85.00
2018-09-11T03:01:03.062Z,84.00
2018-09-11T03:03:31.979Z,83.90
2018-09-11T03:05:59.438Z,83.10
2018-09-11T03:08:27.318Z,83.30
2018-09-11T03:10:57.085Z,83.60
2018-09-11T03:13:23.756Z,83.60
2018-09-11T03:15:51.554Z,83.60
2018-09-11T03:18:18.243Z,84.30
2018-09-11T03:20:44.818Z,83.90
2018-09-11T03:25:44.176Z,85.00
2018-09-11T03:28:11.553Z,84.10
2018-09-11T03:30:38.892Z,83.80
2018-09-11T03:35:38.160Z,83.20
2018-09-11T03:38:04.786Z,83.70
2018-09-11T03:40:31.444Z,83.30
2018-09-11T03:42:58.168Z,84.70
2018-09-11T03:45:25.653Z,85.10
2018-09-11T03:47:53.856Z,85.10
2018-09-11T03:50:21.871Z,85.30
2018-09-11T03:52:48.534Z,85.20
2018-09-11T03:55:15.744Z,84.30
2018-09-11T03:57:43.511Z,85.20
2018-09-11T04:00:10.541Z,84.10
2018-09-11T04:02:38.212Z,83.90
2018-09-11T04:05:06.747Z,85.80
2018-09-11T04:07:33.547Z,85.40
2018-09-11T04:10:00.856Z,86.10
2018-09-11T04:12:27.532Z,84.00
2018-09-11T04:14:54.610Z,84.10
2018-09-11T04:17:21.327Z,82.10
2018-09-11T04:19:47.997Z,84.30
2018-09-11T04:22:15.948Z,84.50
2018-09-11T04:24:42.424Z,84.50
2018-09-11T04:27:09.032Z,82.80
2018-09-11T04:29:37.282Z,82.90
2018-09-11T04:32:04.075Z,84.40
2018-09-11T04:34:30.950Z,84.00
2018-09-11T04:36:58.193Z,83.50
2018-09-11T04:39:24.961Z,83.70
2018-09-11T04:46:56.033Z,84.40
2018-09-11T04:49:22.947Z,84.10
2018-09-11T04:51:49.705Z,83.70
2018-09-11T04:54:17.262Z,84.80
2018-09-11T04:56:43.792Z,83.80
2018-09-11T04:59:10.529Z,82.30
2018-09-11T05:04:10.564Z,82.50
2018-09-11T05:06:37.972Z,84.30
2018-09-11T05:09:04.556Z,82.70
2018-09-11T05:11:31.107Z,82.90
2018-09-11T05:13:57.790Z,83.10
2018-09-11T05:16:24.483Z,82.20
2018-09-11T05:21:27.603Z,83.70
2018-09-11T05:23:57.255Z,83.20
2018-09-11T05:26:25.591Z,82.70
2018-09-11T05:28:52.255Z,82.60
2018-09-11T05:31:18.823Z,82.00
2018-09-11T05:33:45.565Z,82.00
2018-09-11T05:36:12.333Z,81.70
2018-09-11T05:38:39.092Z,80.00
2018-09-11T05:41:05.937Z,80.90
2018-09-11T05:43:32.493Z,80.60
2018-09-11T05:45:59.046Z,80.20
2018-09-11T05:48:32.836Z,80.20
2018-09-11T05:50:59.508Z,82.00
2018-09-11T05:53:26.240Z,80.60
2018-09-11T05:55:53.320Z,81.20
2018-09-11T05:58:22.471Z,80.40
2018-09-11T06:00:49.186Z,81.40
2018-09-11T06:03:17.812Z,79.80
2018-09-11T06:05:47.044Z,77.60
2018-09-11T06:08:16.036Z,79.80
2018-09-11T06:10:42.709Z,80.20
2018-09-11T06:13:09.361Z,80.20
2018-09-11T06:15:36.834Z,79.60
2018-09-11T06:20:35.349Z,78.30
2018-09-11T06:23:04.735Z,77.80
2018-09-11T06:25:32.977Z,78.10
2018-09-11T06:27:59.884Z,77.20
2018-09-11T06:30:29.771Z,75.30
2018-09-11T06:32:56.801Z,78.60
2018-09-11T06:35:23.800Z,75.90
2018-09-11T06:37:52.619Z,75.20
2018-09-11T06:40:19.289Z,73.20
2018-09-11T06:42:52.630Z,73.10
2018-09-11T06:45:21.445Z,74.80
2018-09-11T06:47:48.703Z,72.30
2018-09-11T06:50:15.303Z,73.60
2018-09-11T06:52:46.443Z,73.70
2018-09-11T06:55:14.170Z,74.50
2018-09-11T06:57:44.234Z,72.60
2018-09-11T07:00:11.190Z,73.50
2018-09-11T07:02:37.892Z,69.90
2018-09-11T07:05:08.253Z,68.20
2018-09-11T07:07:35.099Z,68.20
2018-09-11T07:10:11.345Z,69.80
2018-09-11T07:12:40.760Z,68.20
2018-09-11T07:15:09.485Z,65.60
2018-09-11T07:17:37.173Z,68.30
2018-09-11T07:20:08.822Z,65.70
2018-09-11T07:22:41.583Z,66.20
2018-09-11T07:25:15.262Z,65.20
2018-09-11T07:27:47.894Z,66.00
2018-09-11T07:30:19.999Z,66.80
2018-09-11T07:32:46.598Z,67.70
2018-09-11T07:35:13.308Z,66.20
2018-09-11T07:37:40.001Z,66.10
2018-09-11T07:40:09.170Z,66.60
2018-09-11T07:42:42.696Z,66.20
2018-09-11T07:45:09.236Z,67.00
2018-09-11T07:47:36.586Z,66.80
2018-09-11T07:50:09.663Z,65.30
2018-09-11T07:52:36.431Z,66.80
2018-09-11T07:55:03.304Z,65.60
2018-09-11T07:57:29.912Z,65.30
2018-09-11T07:59:57.876Z,65.80
2018-09-11T08:02:26.541Z,66.40
2018-09-11T08:04:54.746Z,67.20
2018-09-11T08:07:21.278Z,68.00
2018-09-11T08:12:23.171Z,65.00
2018-09-11T08:14:50.815Z,66.00
2018-09-11T08:17:24.825Z,67.70
2018-09-11T08:19:51.563Z,65.40
2018-09-11T08:22:22.357Z,61.80
2018-09-11T08:24:48.866Z,63.60
2018-09-11T08:27:15.489Z,61.20
2018-09-11T08:29:42.436Z,62.60
2018-09-11T08:32:09.257Z,60.20
2018-09-11T08:34:36.095Z,62.10
2018-09-11T08:37:02.957Z,60.00
2018-09-11T08:39:29.502Z,61.10
2018-09-11T08:41:58.033Z,60.50
2018-09-11T08:44:26.643Z,59.40
2018-09-11T08:46:53.363Z,59.40
2018-09-11T08:49:26.081Z,60.50
2018-09-11T08:51:53.565Z,59.40
2018-09-11T08:54:20.072Z,59.90
2018-09-11T08:56:46.627Z,58.30
2018-09-11T08:59:16.925Z,59.40
2018-09-11T09:01:47.701Z,59.20
2018-09-11T09:04:15.537Z,57.80
2018-09-11T09:06:42.025Z,57.50
2018-09-11T09:09:11.269Z,56.80
2018-09-11T09:11:37.878Z,57.70
2018-09-11T09:14:04.427Z,56.50
2018-09-11T09:16:34.478Z,56.40
2018-09-11T09:19:01.035Z,56.10
2018-09-11T09:21:27.642Z,56.10
2018-09-11T09:23:54.231Z,56.20
2018-09-11T09:26:23.789Z,55.50
2018-09-11T09:31:28.333Z,55.30
2018-09-11T09:34:02.492Z,53.80
2018-09-11T09:36:38.583Z,55.20
2018-09-11T09:39:05.389Z,54.90
2018-09-11T09:41:37.173Z,54.00
2018-09-11T09:44:03.766Z,52.90
2018-09-11T09:46:30.667Z,54.40
2018-09-11T09:49:00.353Z,51.40
2018-09-11T09:56:37.719Z,51.90
2018-09-11T09:59:04.421Z,51.40
2018-09-11T10:01:31.398Z,49.20
2018-09-11T10:06:33.261Z,48.50
2018-09-11T10:09:06.052Z,49.00
2018-09-11T10:11:32.599Z,49.40
2018-09-11T10:14:01.092Z,50.60
2018-09-11T10:16:27.646Z,50.90
2018-09-11T10:18:57.669Z,51.00
2018-09-11T10:21:24.316Z,48.90
2018-09-11T10:23:53.391Z,52.50
2018-09-11T10:26:19.876Z,51.30
2018-09-11T10:28:48.750Z,49.80
2018-09-11T10:31:18.225Z,54.50
2018-09-11T10:33:45.747Z,49.70
2018-09-11T10:36:17.504Z,48.30
2018-09-11T10:38:44.060Z,49.70
2018-09-11T10:41:11.643Z,48.60
2018-09-11T10:43:38.581Z,50.20
2018-09-11T10:46:06.484Z,48.60
2018-09-11T10:48:34.294Z,47.80
2018-09-11T10:51:02.870Z,48.70
2018-09-11T10:58:40.425Z,47.40
2018-09-11T11:01:07.458Z,48.00
2018-09-11T11:03:34.059Z,48.70
2018-09-11T11:08:32.954Z,48.90
2018-09-11T11:10:59.541Z,47.40
2018-09-11T11:13:29.511Z,45.70
2018-09-11T11:15:56.243Z,47.70
2018-09-11T11:18:25.502Z,46.00
2018-09-11T11:20:57.545Z,42.00
2018-09-11T11:23:24.088Z,44.00
2018-09-11T11:25:50.682Z,45.70
2018-09-11T11:28:17.257Z,41.10
2018-09-11T11:36:00.793Z,40.80
2018-09-11T11:38:27.568Z,39.20
2018-09-11T11:43:33.276Z,43.30
2018-09-11T11:46:11.927Z,40.70
2018-09-11T11:48:40.529Z,39.00
2018-09-11T11:51:07.366Z,40.60
2018-09-11T11:53:33.854Z,42.90
2018-09-11T11:56:00.317Z,41.90
2018-09-11T12:04:01.051Z,39.40
2018-09-11T12:06:28.525Z,40.20
2018-09-11T12:14:13.842Z,39.90
2018-09-11T12:16:40.281Z,37.80
2018-09-11T12:19:12.287Z,39.40
2018-09-11T12:21:38.925Z,38.20
2018-09-11T12:24:05.821Z,39.60
2018-09-11T12:26:32.885Z,37.20
2018-09-11T12:28:59.526Z,39.50
2018-09-11T12:36:47.397Z,37.90
2018-09-11T12:42:04.641Z,38.50
2018-09-11T12:44:31.339Z,39.40
2018-09-11T12:46:58.105Z,39.20
2018-09-11T12:49:27.851Z,36.40
2018-09-11T12:51:54.453Z,37.60
2018-09-11T12:54:21.268Z,39.10
2018-09-11T12:56:48.388Z,37.90
2018-09-11T12:59:15.055Z,39.00
2018-09-11T13:01:46.722Z,35.60
2018-09-11T13:04:13.183Z,36.20
2018-09-11T13:09:20.904Z,37.10
2018-09-11T13:16:53.821Z,36.10
2018-09-11T13:19:21.027Z,36.30
2018-09-11T13:21:47.785Z,36.90
2018-09-11T13:24:15.191Z,36.90
2018-09-11T13:26:43.290Z,37.30
2018-09-11T13:29:10.191Z,37.90
2018-09-11T13:31:36.772Z,37.00
2018-09-11T13:36:42.643Z,36.60
2018-09-11T13:41:46.311Z,37.30
2018-09-11T13:44:12.974Z,36.10
2018-09-11T13:46:39.870Z,36.60
2018-09-11T13:51:49.236Z,37.00
2018-09-11T13:54:21.474Z,36.40
2018-09-11T13:59:33.049Z,37.20
2018-09-11T14:01:59.619Z,37.30
2018-09-11T14:04:29.544Z,37.50
2018-09-11T14:06:56.160Z,38.10
2018-09-11T14:12:10.451Z,39.70
2018-09-11T14:19:48.729Z,39.30
2018-09-11T14:25:05.468Z,39.40
2018-09-11T14:27:36.862Z,40.50
2018-09-11T14:30:04.018Z,38.70
2018-09-11T14:32:30.623Z,39.30
2018-09-11T14:37:42.622Z,40.80
2018-09-11T14:42:50.702Z,39.60
2018-09-11T14:45:19.047Z,40.80
2018-09-11T14:47:46.465Z,38.50
2018-09-11T14:52:50.110Z,42.80
2018-09-11T14:55:16.594Z,38.90
2018-09-11T15:00:27.348Z,38.90
2018-09-11T15:02:53.863Z,40.00
2018-09-11T15:05:20.724Z,41.00
2018-09-11T15:10:18.901Z,40.00
2018-09-11T15:12:45.502Z,41.00
2018-09-11T15:15:12.113Z,39.80
2018-09-11T15:17:47.424Z,39.00
2018-09-11T15:20:13.962Z,39.90
2018-09-11T15:25:26.762Z,41.80
2018-09-11T15:27:53.292Z,42.40
2018-09-11T15:30:22.759Z,41.70
2018-09-11T15:32:50.732Z,40.50
2018-09-11T15:35:21.640Z,39.50
2018-09-11T15:37:54.407Z,43.00
2018-09-11T15:40:25.757Z,42.70
2018-09-11T15:45:24.700Z,44.20
2018-09-11T15:47:51.391Z,44.80
2018-09-11T15:50:17.974Z,43.80
2018-09-11T15:52:44.728Z,44.80
2018-09-11T15:55:11.400Z,43.50
2018-09-11T16:03:09.644Z,47.30
2018-09-11T16:05:37.267Z,47.90
2018-09-11T16:13:33.646Z,49.20
2018-09-11T16:16:01.947Z,50.40
2018-09-11T16:21:22.353Z,51.60
2018-09-11T16:23:49.045Z,51.90
2018-09-11T16:26:15.592Z,52.10
2018-09-11T16:28:48.366Z,51.40
2018-09-11T16:31:17.695Z,51.10
2018-09-11T16:33:44.244Z,51.10
2018-09-11T16:36:10.789Z,52.10
2018-09-11T16:38:37.440Z,54.00
2018-09-11T16:41:04.324Z,53.50
2018-09-11T16:43:33.109Z,54.40
2018-09-11T16:46:07.260Z,54.40
2018-09-11T16:51:09.390Z,54.20
2018-09-11T16:53:43.404Z,54.30
2018-09-11T16:56:16.194Z,54.80
2018-09-11T16:58:44.588Z,54.90
2018-09-11T17:01:18.742Z,55.50
2018-09-11T17:03:50.546Z,56.70
2018-09-11T17:06:20.675Z,56.10
2018-09-11T17:08:49.642Z,56.40
2018-09-11T17:13:54.694Z,56.30
2018-09-11T17:16:27.418Z,57.30
2018-09-11T17:19:01.705Z,57.40
2018-09-11T17:21:28.738Z,57.70
2018-09-11T17:23:57.256Z,57.50
2018-09-11T17:26:25.677Z,57.60
2018-09-11T17:28:52.382Z,56.50
2018-09-11T17:31:24.801Z,57.90
2018-09-11T17:36:27.350Z,56.00
2018-09-11T17:38:54.014Z,58.50
2018-09-11T17:41:23.011Z,58.90
2018-09-11T17:43:54.025Z,58.10
2018-09-11T17:46:20.612Z,58.60
2018-09-11T17:48:47.391Z,58.50
2018-09-11T17:51:17.382Z,57.30
2018-09-11T17:53:45.980Z,57.40
2018-09-11T17:56:13.652Z,58.00
2018-09-11T17:58:40.307Z,58.30
2018-09-11T18:01:07.503Z,58.60
2018-09-11T18:03:35.702Z,58.90
2018-09-11T18:06:02.232Z,58.90
2018-09-11T18:08:29.606Z,58.90
2018-09-11T18:10:57.974Z,59.30
2018-09-11T18:13:25.933Z,58.90
2018-09-11T18:15:53.697Z,58.40
2018-09-11T18:18:22.130Z,58.30
2018-09-11T18:20:52.440Z,59.40
2018-09-11T18:23:19.286Z,60.40
2018-09-11T18:25:47.718Z,60.30
2018-09-11T18:28:19.661Z,61.70
2018-09-11T18:30:46.802Z,61.30
2018-09-11T18:33:15.050Z,62.00
2018-09-11T18:35:45.351Z,61.90
2018-09-11T18:38:14.730Z,62.80
2018-09-11T18:40:43.709Z,63.00
2018-09-11T18:43:11.437Z,62.70
2018-09-11T18:45:41.363Z,62.30
2018-09-11T18:48:07.996Z,63.40
2018-09-11T18:50:37.387Z,63.10
2018-09-11T18:53:07.061Z,63.90
2018-09-11T18:55:34.839Z,64.00
2018-09-11T18:58:03.860Z,64.10
2018-09-11T19:00:30.778Z,63.10
2018-09-11T19:02:58.297Z,63.10
2018-09-11T19:05:26.916Z,64.30
2018-09-11T19:07:53.596Z,64.50
2018-09-11T19:10:20.567Z,65.20
2018-09-11T19:12:47.516Z,66.10
2018-09-11T19:15:14.176Z,65.90
2018-09-11T19:17:41.688Z,65.50
2018-09-11T19:20:08.982Z,65.90
2018-09-11T19:22:37.101Z,65.70
2018-09-11T19:25:03.771Z,65.40
2018-09-11T19:27:30.795Z,66.20
2018-09-11T19:32:29.233Z,66.70
2018-09-11T19:40:01.868Z,64.90
2018-09-11T19:42:28.524Z,66.60
2018-09-11T19:44:56.345Z,66.40
2018-09-11T19:47:24.426Z,68.00
2018-09-11T19:49:50.988Z,68.00
2018-09-11T19:52:19.391Z,68.90
2018-09-11T19:54:47.086Z,68.10
2018-09-11T19:57:15.602Z,68.40
2018-09-11T19:59:46.251Z,68.70
2018-09-11T20:04:45.588Z,68.00
2018-09-11T20:07:13.404Z,68.50
2018-09-11T20:09:43.022Z,68.80
2018-09-11T20:12:15.569Z,70.30
2018-09-11T20:14:42.202Z,70.20
2018-09-11T20:17:09.627Z,70.10
2018-09-11T20:19:38.359Z,69.40
2018-09-11T20:22:05.176Z,69.20
2018-09-11T20:24:33.493Z,69.30
2018-09-11T20:27:00.540Z,68.60
2018-09-11T20:29:27.221Z,69.40
2018-09-11T20:31:54.346Z,69.80
2018-09-11T20:34:21.526Z,69.80
2018-09-11T20:36:48.612Z,70.40
2018-09-11T20:39:16.233Z,70.10
2018-09-11T20:41:45.155Z,71.20
2018-09-11T20:44:12.076Z,71.10
2018-09-11T20:46:41.821Z,70.50
2018-09-11T20:49:08.945Z,70.80
2018-09-11T20:51:35.585Z,70.90
2018-09-11T20:54:02.285Z,71.50
2018-09-11T20:56:31.903Z,71.30
2018-09-11T20:58:59.881Z,72.10
2018-09-11T21:01:28.192Z,72.30
2018-09-11T21:03:56.048Z,74.50
2018-09-11T21:06:22.951Z,74.60
2018-09-11T21:08:49.662Z,73.50
2018-09-11T21:11:17.925Z,74.50
2018-09-11T21:13:44.616Z,74.80
2018-09-11T21:16:12.222Z,74.70
2018-09-11T21:18:39.054Z,75.00
2018-09-11T21:21:06.508Z,76.30
2018-09-11T21:23:33.618Z,74.60
2018-09-11T21:26:00.401Z,75.50
2018-09-11T21:28:26.940Z,75.00
2018-09-11T21:30:53.448Z,75.40
2018-09-11T21:33:23.337Z,75.20
2018-09-11T21:35:50.583Z,77.20
2018-09-11T21:38:21.559Z,76.30
2018-09-11T21:40:52.889Z,75.40
2018-09-11T21:43:19.735Z,75.80
2018-09-11T21:45:46.372Z,75.40
2018-09-11T21:48:16.780Z,77.40
2018-09-11T21:50:45.045Z,76.40
2018-09-11T21:53:13.202Z,77.70
2018-09-11T21:55:40.380Z,76.70
2018-09-11T21:58:07.238Z,75.90
2018-09-11T22:00:34.464Z,76.90
2018-09-11T22:03:01.748Z,77.40
2018-09-11T22:05:31.736Z,76.90
2018-09-11T22:07:58.423Z,76.10
2018-09-11T22:12:57.688Z,76.80
2018-09-11T22:15:26.452Z,79.00
2018-09-11T22:17:53.048Z,78.30
2018-09-11T22:22:51.676Z,76.80
2018-09-11T22:25:18.306Z,76.60
2018-09-11T22:27:45.152Z,76.10
2018-09-11T22:30:14.180Z,77.50
2018-09-11T22:32:41.015Z,77.30
2018-09-11T22:35:10.719Z,78.30
2018-09-11T22:37:37.746Z,77.60
2018-09-11T22:40:05.203Z,77.70
2018-09-11T22:42:31.779Z,79.40
2018-09-11T22:44:59.555Z,79.70
2018-09-11T22:47:26.055Z,78.60
2018-09-11T22:49:52.722Z,79.00
2018-09-11T22:52:21.149Z,79.90
2018-09-11T22:54:48.128Z,80.90
2018-09-11T22:57:16.058Z,82.30
2018-09-11T22:59:45.391Z,84.80
2018-09-11T23:02:12.575Z,84.20
2018-09-11T23:04:39.341Z,84.20
2018-09-11T23:07:06.085Z,85.00
2018-09-11T23:09:33.459Z,84.00
2018-09-11T23:12:02.741Z,83.40
2018-09-11T23:14:32.645Z,84.50
2018-09-11T23:17:01.796Z,84.80
2018-09-11T23:19:29.934Z,84.00
2018-09-11T23:21:58.844Z,82.90
2018-09-11T23:24:25.500Z,82.00
2018-09-11T23:26:52.090Z,82.80
2018-09-11T23:29:21.157Z,83.10
2018-09-11T23:31:47.818Z,83.10
2018-09-11T23:34:15.988Z,82.70
2018-09-11T23:36:45.011Z,82.50
2018-09-11T23:39:11.908Z,83.70
2018-09-11T23:41:42.346Z,83.60
2018-09-11T23:44:08.970Z,84.30
2018-09-11T23:46:37.294Z,83.20
2018-09-11T23:49:03.993Z,85.10
2018-09-11T23:51:30.697Z,84.40
2018-09-11T23:53:57.332Z,85.70
2018-09-11T23:56:24.797Z,87.00
2018-09-11T23:58:56.700Z,87.20
